createdAt,value
2022-08-23T00:00:13.013Z,25.98
2022-08-23T00:03:02.320Z,25.28
2022-08-23T00:05:33.280Z,25.84
2022-08-23T00:08:02.122Z,25.85
2022-08-23T00:10:32.492Z,25.90
2022-08-23T00:13:00.941Z,25.95
2022-08-23T00:15:29.989Z,25.83
2022-08-23T00:18:00.616Z,26.21
2022-08-23T00:20:29.369Z,26.40
2022-08-23T00:22:58.080Z,26.26
2022-08-23T00:25:26.537Z,26.38
2022-08-23T00:27:56.229Z,25.93
2022-08-23T00:30:25.139Z,25.92
2022-08-23T00:32:53.564Z,25.70
2022-08-23T00:35:27.509Z,25.61
2022-08-23T00:38:33.257Z,24.98
2022-08-23T00:40:51.032Z,24.62
2022-08-23T00:43:43.516Z,24.70
2022-08-23T00:46:39.459Z,25.07
2022-08-23T00:49:12.455Z,25.61
2022-08-23T00:51:52.612Z,25.84
2022-08-23T00:54:24.499Z,26.01
2022-08-23T00:56:55.850Z,26.15
2022-08-23T00:59:26.219Z,26.30
2022-08-23T01:01:54.902Z,25.75
2022-08-23T01:04:23.326Z,25.54
2022-08-23T01:06:59.125Z,25.09
2022-08-23T01:09:28.136Z,25.08
2022-08-23T01:12:04.622Z,24.33
2022-08-23T01:14:39.842Z,23.65
2022-08-23T01:17:13.610Z,23.30
2022-08-23T01:19:47.260Z,23.19
2022-08-23T01:22:24.011Z,23.58
2022-08-23T01:25:07.092Z,23.48
2022-08-23T01:27:41.392Z,23.47
2022-08-23T01:30:18.583Z,23.15
2022-08-23T01:32:55.381Z,23.20
2022-08-23T01:35:35.797Z,23.68
2022-08-23T01:38:05.505Z,23.71
2022-08-23T01:40:36.350Z,23.44
2022-08-23T01:43:06.914Z,23.40
2022-08-23T01:45:36.982Z,23.34
2022-08-23T01:48:08.592Z,23.53
2022-08-23T01:53:12.028Z,24.59
2022-08-23T01:55:46.080Z,24.59
2022-08-23T01:58:14.620Z,24.73
2022-08-23T02:00:44.893Z,24.38
2022-08-23T02:03:15.949Z,24.52
2022-08-23T02:05:45.772Z,24.45
2022-08-23T02:08:32.576Z,24.75
2022-08-23T02:11:10.404Z,25.26
2022-08-23T02:13:41.777Z,25.24
2022-08-23T02:16:14.935Z,25.39
2022-08-23T02:18:44.537Z,24.85
2022-08-23T02:21:13.902Z,24.22
2022-08-23T02:23:42.484Z,23.86
2022-08-23T02:26:12.477Z,23.98
2022-08-23T02:28:43.696Z,23.73
2022-08-23T02:31:12.942Z,23.90
2022-08-23T02:33:42.647Z,23.56
2022-08-23T02:36:11.690Z,23.31
2022-08-23T02:38:40.957Z,23.53
2022-08-23T02:41:09.880Z,24.11
2022-08-23T02:43:41.114Z,24.59
2022-08-23T02:46:10.980Z,24.88
2022-08-23T02:48:39.970Z,24.83
2022-08-23T02:51:10.264Z,24.60
2022-08-23T02:53:39.191Z,24.89
2022-08-23T02:56:12.999Z,25.01
2022-08-23T02:58:54.430Z,25.10
2022-08-23T03:01:27.547Z,25.27
2022-08-23T03:04:00.323Z,25.36
2022-08-23T03:06:30.999Z,25.40
2022-08-23T03:08:59.963Z,25.36
2022-08-23T03:11:29.461Z,25.48
2022-08-23T03:14:01.213Z,25.48
2022-08-23T03:16:30.172Z,25.51
2022-08-23T03:18:58.917Z,25.43
2022-08-23T03:21:27.612Z,25.59
2022-08-23T03:23:57.398Z,25.73
2022-08-23T03:26:26.524Z,25.62
2022-08-23T03:28:55.005Z,25.33
2022-08-23T03:31:31.254Z,24.80
2022-08-23T03:34:08.297Z,24.31
2022-08-23T03:36:37.062Z,24.48
2022-08-23T03:39:07.682Z,24.81
2022-08-23T03:41:36.226Z,24.23
2022-08-23T03:44:05.655Z,24.33
2022-08-23T03:46:39.154Z,24.33
2022-08-23T03:49:08.291Z,24.90
2022-08-23T03:51:46.647Z,25.02
2022-08-23T03:54:15.488Z,24.37
2022-08-23T03:56:53.095Z,24.34
2022-08-23T03:59:22.504Z,24.15
2022-08-23T04:01:52.644Z,24.29
2022-08-23T04:04:21.498Z,23.89
2022-08-23T04:07:08.848Z,23.65
2022-08-23T04:09:38.648Z,23.29
2022-08-23T04:12:12.105Z,23.20
2022-08-23T04:14:47.678Z,23.12
2022-08-23T04:17:19.122Z,23.33
2022-08-23T04:19:48.230Z,23.32
2022-08-23T04:22:18.795Z,23.45
2022-08-23T04:24:48.145Z,23.60
2022-08-23T04:27:17.896Z,23.68
2022-08-23T04:29:47.932Z,23.57
2022-08-23T04:32:28.078Z,23.89
2022-08-23T04:34:58.773Z,24.26
2022-08-23T04:37:28.628Z,24.03
2022-08-23T04:40:16.105Z,24.72
2022-08-23T04:42:45.499Z,25.04
2022-08-23T04:45:14.732Z,25.39
2022-08-23T04:47:48.700Z,25.76
2022-08-23T04:50:17.600Z,25.68
2022-08-23T04:53:08.589Z,24.35
2022-08-23T04:55:44.023Z,24.25
2022-08-23T04:58:13.004Z,24.89
2022-08-23T05:00:51.516Z,24.99
2022-08-23T05:03:27.051Z,25.15
2022-08-23T05:05:58.196Z,25.37
2022-08-23T05:08:34.805Z,25.62
2022-08-23T05:11:07.523Z,25.74
2022-08-23T05:13:39.001Z,25.63
2022-08-23T05:16:10.391Z,25.74
2022-08-23T05:18:46.845Z,25.87
2022-08-23T05:21:16.777Z,26.22
2022-08-23T05:23:50.843Z,26.29
2022-08-23T05:26:23.391Z,26.29
2022-08-23T05:28:52.270Z,26.30
2022-08-23T05:31:29.388Z,25.78
2022-08-23T05:34:06.099Z,25.11
2022-08-23T05:36:48.905Z,25.36
2022-08-23T05:39:36.069Z,25.39
2022-08-23T05:42:07.987Z,25.01
2022-08-23T05:44:37.958Z,25.01
2022-08-23T05:47:11.726Z,25.24
2022-08-23T05:50:09.376Z,25.40
2022-08-23T05:52:39.305Z,25.58
2022-08-23T05:55:09.057Z,25.51
2022-08-23T05:57:38.791Z,24.73
2022-08-23T06:00:12.822Z,24.45
2022-08-23T06:02:47.444Z,24.23
2022-08-23T06:05:19.600Z,23.91
2022-08-23T06:07:49.515Z,23.68
2022-08-23T06:10:21.532Z,23.61
2022-08-23T06:12:59.915Z,23.81
2022-08-23T06:15:28.868Z,23.47
2022-08-23T06:17:57.397Z,23.52
2022-08-23T06:20:27.550Z,23.62
2022-08-23T06:23:08.312Z,23.58
2022-08-23T06:25:41.452Z,23.83
2022-08-23T06:28:15.045Z,23.72
2022-08-23T06:30:44.271Z,23.39
2022-08-23T06:33:27.380Z,23.66
2022-08-23T06:36:27.687Z,23.96
2022-08-23T06:39:06.954Z,24.33
2022-08-23T06:41:54.537Z,24.41
2022-08-23T06:44:29.174Z,23.98
2022-08-23T06:47:19.912Z,23.97
2022-08-23T06:49:57.850Z,24.50
2022-08-23T06:52:49.760Z,24.96
2022-08-23T06:55:29.047Z,25.27
2022-08-23T06:58:19.526Z,25.21
2022-08-23T07:00:57.378Z,25.38
2022-08-23T07:03:36.582Z,25.14
2022-08-23T07:06:24.541Z,25.33
2022-08-23T07:08:55.107Z,25.42
2022-08-23T07:11:25.333Z,25.67
2022-08-23T07:13:55.370Z,25.97
2022-08-23T07:16:24.177Z,25.95
2022-08-23T07:18:55.485Z,26.01
2022-08-23T07:21:24.213Z,26.23
2022-08-23T07:23:55.411Z,26.24
2022-08-23T07:26:25.258Z,26.00
2022-08-23T07:28:54.375Z,26.00
2022-08-23T07:31:27.248Z,26.15
2022-08-23T07:33:58.842Z,26.37
2022-08-23T07:36:29.665Z,26.29
2022-08-23T07:39:00.952Z,26.38
2022-08-23T07:41:32.767Z,26.24
2022-08-23T07:44:04.554Z,26.17
2022-08-23T07:46:34.486Z,25.91
2022-08-23T07:49:06.367Z,26.06
2022-08-23T07:51:43.923Z,25.85
2022-08-23T07:54:14.711Z,26.19
2022-08-23T07:57:06.830Z,25.98
2022-08-23T08:00:03.275Z,26.36
2022-08-23T08:02:52.088Z,26.53
2022-08-23T08:05:29.200Z,26.58
2022-08-23T08:07:58.898Z,26.42
2022-08-23T08:10:29.926Z,26.56
2022-08-23T08:12:59.627Z,25.92
2022-08-23T08:15:28.182Z,25.89
2022-08-23T08:18:06.097Z,25.83
2022-08-23T08:20:53.705Z,25.93
2022-08-23T08:23:54.796Z,25.62
2022-08-23T08:26:54.069Z,24.80
2022-08-23T08:29:23.215Z,24.10
2022-08-23T08:31:54.391Z,24.20
2022-08-23T08:34:24.048Z,23.86
2022-08-23T08:36:55.218Z,23.83
2022-08-23T08:39:30.823Z,24.18
2022-08-23T08:42:20.967Z,24.63
2022-08-23T08:44:54.803Z,24.95
2022-08-23T08:47:36.247Z,25.26
2022-08-23T08:50:14.412Z,25.43
2022-08-23T08:52:48.462Z,25.49
2022-08-23T08:55:34.987Z,25.61
2022-08-23T08:58:08.038Z,25.73
2022-08-23T09:00:39.966Z,25.63
2022-08-23T09:03:15.209Z,25.79
2022-08-23T09:05:53.734Z,25.95
2022-08-23T09:08:37.232Z,26.05
2022-08-23T09:11:12.241Z,25.74
2022-08-23T09:14:00.500Z,26.22
2022-08-23T09:16:47.036Z,25.93
2022-08-23T09:19:15.975Z,25.95
2022-08-23T09:21:48.162Z,26.00
2022-08-23T09:24:17.226Z,26.27
2022-08-23T09:27:02.393Z,26.38
2022-08-23T09:29:35.126Z,26.50
2022-08-23T09:32:07.557Z,26.38
2022-08-23T09:34:44.374Z,26.17
2022-08-23T09:37:19.852Z,25.94
2022-08-23T09:39:51.694Z,25.62
2022-08-23T09:42:29.585Z,26.31
2022-08-23T09:45:00.465Z,26.36
2022-08-23T09:47:36.766Z,26.49
2022-08-23T09:50:26.339Z,26.75
2022-08-23T09:53:04.447Z,26.41
2022-08-23T09:55:36.377Z,26.70
2022-08-23T09:58:08.995Z,26.82
2022-08-23T10:00:39.395Z,26.76
2022-08-23T10:03:27.130Z,26.95
2022-08-23T10:06:04.066Z,26.61
2022-08-23T10:08:43.044Z,26.78
2022-08-23T10:11:19.089Z,26.67
2022-08-23T10:13:49.372Z,27.08
2022-08-23T10:16:31.276Z,26.47
2022-08-23T10:19:21.244Z,26.90
2022-08-23T10:21:59.243Z,27.29
2022-08-23T10:24:34.669Z,27.40
2022-08-23T10:27:46.596Z,27.55
2022-08-23T10:30:18.444Z,27.63
2022-08-23T10:33:07.364Z,27.64
2022-08-23T10:35:50.691Z,27.61
2022-08-23T10:38:42.424Z,27.94
2022-08-23T10:41:44.700Z,28.11
2022-08-23T10:44:26.944Z,27.86
2022-08-23T10:47:11.683Z,27.90
2022-08-23T10:49:43.597Z,27.92
2022-08-23T10:52:19.065Z,27.97
2022-08-23T10:55:00.960Z,28.02
2022-08-23T10:57:36.474Z,27.96
2022-08-23T11:00:10.812Z,28.15
2022-08-23T11:02:49.765Z,28.41
2022-08-23T11:05:29.932Z,28.25
2022-08-23T11:08:05.253Z,28.04
2022-08-23T11:10:56.175Z,28.12
2022-08-23T11:13:29.890Z,28.09
2022-08-23T11:16:01.944Z,28.17
2022-08-23T11:18:44.396Z,28.26
2022-08-23T11:21:49.575Z,28.47
2022-08-23T11:24:50.342Z,28.23
2022-08-23T11:27:33.851Z,28.23
2022-08-23T11:30:40.154Z,28.16
2022-08-23T11:33:20.595Z,28.27
2022-08-23T11:35:51.870Z,28.24
2022-08-23T11:41:24.692Z,27.99
2022-08-23T11:44:22.784Z,28.65
2022-08-23T11:47:02.080Z,28.44
2022-08-23T11:50:04.649Z,28.58
2022-08-23T11:53:03.658Z,28.25
2022-08-23T11:55:51.414Z,28.11
2022-08-23T11:58:31.668Z,28.03
2022-08-23T12:01:08.524Z,28.18
2022-08-23T12:03:55.698Z,28.31
2022-08-23T12:06:42.864Z,28.55
2022-08-23T12:09:51.549Z,28.26
2022-08-23T12:12:33.662Z,27.89
2022-08-23T12:15:09.873Z,27.86
2022-08-23T12:18:08.309Z,28.16
2022-08-23T12:20:38.410Z,27.43
2022-08-23T12:23:15.479Z,27.77
2022-08-23T12:25:44.610Z,27.82
2022-08-23T12:28:34.938Z,27.40
2022-08-23T12:31:14.484Z,27.60
2022-08-23T12:33:55.126Z,27.80
2022-08-23T12:36:34.939Z,27.89
2022-08-23T12:39:20.838Z,28.16
2022-08-23T12:41:59.074Z,28.37
2022-08-23T12:44:29.853Z,28.43
2022-08-23T12:47:14.876Z,28.81
2022-08-23T12:49:54.253Z,28.67
2022-08-23T12:52:27.679Z,28.78
2022-08-23T12:54:58.061Z,28.14
2022-08-23T12:57:34.196Z,27.78
2022-08-23T13:00:18.817Z,27.17
2022-08-23T13:02:56.302Z,27.54
2022-08-23T13:05:34.898Z,27.77
2022-08-23T13:08:09.104Z,27.55
2022-08-23T13:10:40.948Z,27.42
2022-08-23T13:13:13.418Z,27.01
2022-08-23T13:15:46.055Z,27.17
2022-08-23T13:18:28.380Z,26.80
2022-08-23T13:21:26.798Z,26.32
2022-08-23T13:23:58.412Z,26.57
2022-08-23T13:26:38.108Z,27.27
2022-08-23T13:29:14.109Z,27.68
2022-08-23T13:31:50.224Z,27.68
2022-08-23T13:34:47.094Z,27.84
2022-08-23T13:37:24.221Z,27.80
2022-08-23T13:39:56.798Z,27.15
2022-08-23T13:42:39.327Z,26.99
2022-08-23T13:45:10.224Z,26.08
2022-08-23T13:47:39.475Z,25.76
2022-08-23T13:50:18.016Z,25.70
2022-08-23T13:53:11.537Z,25.41
2022-08-23T13:55:43.981Z,25.92
2022-08-23T13:58:15.076Z,25.82
2022-08-23T14:00:54.780Z,25.85
2022-08-23T14:03:25.052Z,25.81
2022-08-23T14:05:55.243Z,25.53
2022-08-23T14:08:24.317Z,25.55
2022-08-23T14:10:53.727Z,25.46
2022-08-23T14:13:28.733Z,25.25
2022-08-23T14:21:41.371Z,25.26
2022-08-23T14:24:10.511Z,25.51
2022-08-23T14:26:39.381Z,25.34
2022-08-23T14:29:22.342Z,25.18
2022-08-23T14:31:51.986Z,25.31
2022-08-23T14:34:21.573Z,25.34
2022-08-23T14:39:42.217Z,25.75
2022-08-23T14:42:13.284Z,26.28
2022-08-23T14:44:43.741Z,26.37
2022-08-23T14:47:12.343Z,26.71
2022-08-23T14:49:40.981Z,26.50
2022-08-23T14:52:12.297Z,26.21
2022-08-23T14:54:40.826Z,26.67
2022-08-23T14:57:09.544Z,26.92
2022-08-23T14:59:38.308Z,26.17
2022-08-23T15:02:09.590Z,25.86
2022-08-23T15:04:38.429Z,25.39
2022-08-23T15:07:22.473Z,25.36
2022-08-23T15:09:55.928Z,25.29
2022-08-23T15:15:16.390Z,25.23
2022-08-23T15:17:48.869Z,25.00
2022-08-23T15:20:18.464Z,25.03
2022-08-23T15:22:55.368Z,24.78
2022-08-23T15:25:29.270Z,24.98
2022-08-23T15:27:58.165Z,25.16
2022-08-23T15:30:27.425Z,25.14
2022-08-23T15:32:58.802Z,25.40
2022-08-23T15:35:28.616Z,25.41
2022-08-23T15:37:57.856Z,25.25
2022-08-23T15:40:27.795Z,25.14
2022-08-23T15:42:57.028Z,25.30
2022-08-23T15:45:25.440Z,25.42
2022-08-23T15:47:56.464Z,25.44
2022-08-23T15:50:28.229Z,25.77
2022-08-23T15:52:56.876Z,25.54
2022-08-23T15:55:29.052Z,25.53
2022-08-23T15:57:58.694Z,25.44
2022-08-23T16:00:29.392Z,25.52
2022-08-23T16:03:20.526Z,25.53
2022-08-23T16:05:49.077Z,25.56
2022-08-23T16:08:20.722Z,25.34
2022-08-23T16:10:51.417Z,25.67
2022-08-23T16:13:20.653Z,25.87
2022-08-23T16:15:50.093Z,25.82
2022-08-23T16:18:19.198Z,25.63
2022-08-23T16:20:47.657Z,25.58
2022-08-23T16:23:16.245Z,25.86
2022-08-23T16:25:45.251Z,25.94
2022-08-23T16:28:15.139Z,25.98
2022-08-23T16:30:43.913Z,26.17
2022-08-23T16:33:13.020Z,26.11
2022-08-23T16:35:41.583Z,25.96
2022-08-23T16:38:10.288Z,25.78
2022-08-23T16:40:39.012Z,25.68
2022-08-23T16:43:07.433Z,25.72
2022-08-23T16:45:37.524Z,26.01
2022-08-23T16:48:06.600Z,25.94
2022-08-23T16:50:35.122Z,26.01
2022-08-23T16:53:07.251Z,25.79
2022-08-23T16:55:36.756Z,26.03
2022-08-23T16:58:06.985Z,26.04
2022-08-23T17:00:37.372Z,26.06
2022-08-23T17:03:06.962Z,26.15
2022-08-23T17:05:36.156Z,26.29
2022-08-23T17:08:05.537Z,26.63
2022-08-23T17:10:34.845Z,26.28
2022-08-23T17:13:03.920Z,26.70
2022-08-23T17:15:35.470Z,26.91
2022-08-23T17:18:06.137Z,26.99
2022-08-23T17:20:38.335Z,27.16
2022-08-23T17:23:08.003Z,26.85
2022-08-23T17:25:37.236Z,26.86
2022-08-23T17:28:06.762Z,27.31
2022-08-23T17:30:35.804Z,27.40
2022-08-23T17:33:06.180Z,27.57
2022-08-23T17:35:34.805Z,27.48
2022-08-23T17:38:04.827Z,27.46
2022-08-23T17:40:36.572Z,27.76
2022-08-23T17:43:06.268Z,27.54
2022-08-23T17:45:41.660Z,27.99
2022-08-23T17:48:12.796Z,27.85
2022-08-23T17:50:43.707Z,28.12
2022-08-23T17:53:14.395Z,28.29
2022-08-23T17:55:43.652Z,28.34
2022-08-23T17:58:13.433Z,28.48
2022-08-23T18:00:42.205Z,28.60
2022-08-23T18:03:12.262Z,28.64
2022-08-23T18:05:41.163Z,28.71
2022-08-23T18:08:10.540Z,28.75
2022-08-23T18:10:39.499Z,28.72
2022-08-23T18:13:08.066Z,28.70
2022-08-23T18:15:37.633Z,28.58
2022-08-23T18:18:06.220Z,28.24
2022-08-23T18:20:36.918Z,28.39
2022-08-23T18:23:05.591Z,28.41
2022-08-23T18:25:34.093Z,28.53
2022-08-23T18:28:08.466Z,28.39
2022-08-23T18:30:39.609Z,28.57
2022-08-23T18:33:12.479Z,28.62
2022-08-23T18:35:43.622Z,28.62
2022-08-23T18:38:13.628Z,28.62
2022-08-23T18:40:46.809Z,28.70
2022-08-23T18:43:18.095Z,28.78
2022-08-23T18:45:48.090Z,28.83
2022-08-23T18:48:20.501Z,28.85
2022-08-23T18:50:51.494Z,28.90
2022-08-23T18:53:21.080Z,28.95
2022-08-23T18:55:51.010Z,28.95
2022-08-23T18:58:21.225Z,28.91
2022-08-23T19:00:52.388Z,28.90
2022-08-23T19:03:21.266Z,28.94
2022-08-23T19:05:51.359Z,28.97
2022-08-23T19:08:20.105Z,28.97
2022-08-23T19:10:48.725Z,28.92
2022-08-23T19:13:17.240Z,28.93
2022-08-23T19:15:45.960Z,28.90
2022-08-23T19:18:19.144Z,28.90
2022-08-23T19:20:48.595Z,28.93
2022-08-23T19:23:21.217Z,28.78
2022-08-23T19:25:50.051Z,28.83
2022-08-23T19:28:20.028Z,28.78
2022-08-23T19:30:50.454Z,28.79
2022-08-23T19:33:19.585Z,28.86
2022-08-23T19:35:48.162Z,28.86
2022-08-23T19:38:19.320Z,28.77
2022-08-23T19:40:48.488Z,28.66
2022-08-23T19:43:18.120Z,28.72
2022-08-23T19:45:46.674Z,28.79
2022-08-23T19:48:15.447Z,28.33
2022-08-23T19:50:44.142Z,28.33
2022-08-23T19:53:12.713Z,28.50
2022-08-23T19:55:46.063Z,28.50
2022-08-23T19:58:15.886Z,28.41
2022-08-23T20:00:46.011Z,28.36
2022-08-23T20:03:14.633Z,28.44
2022-08-23T20:05:43.876Z,28.10
2022-08-23T20:08:12.566Z,28.18
2022-08-23T20:10:44.208Z,28.22
2022-08-23T20:13:14.246Z,28.04
2022-08-23T20:15:43.062Z,28.16
2022-08-23T20:18:11.548Z,28.26
2022-08-23T20:20:40.977Z,28.31
2022-08-23T20:23:27.085Z,28.35
2022-08-23T20:25:55.697Z,28.38
2022-08-23T20:28:27.844Z,28.29
2022-08-23T20:30:56.352Z,28.28
2022-08-23T20:33:24.816Z,28.25
2022-08-23T20:35:53.522Z,28.32
2022-08-23T20:38:33.166Z,28.29
2022-08-23T20:41:03.314Z,28.18
2022-08-23T20:43:35.719Z,28.32
2022-08-23T20:46:05.099Z,28.31
2022-08-23T20:48:33.981Z,28.23
2022-08-23T20:51:03.625Z,28.14
2022-08-23T20:53:33.065Z,28.10
2022-08-23T20:56:01.982Z,27.58
2022-08-23T20:58:30.469Z,27.56
2022-08-23T21:01:00.741Z,27.46
2022-08-23T21:03:29.985Z,27.55
2022-08-23T21:06:05.736Z,27.63
2022-08-23T21:08:35.265Z,27.72
2022-08-23T21:11:10.510Z,27.74
2022-08-23T21:13:42.310Z,27.41
2022-08-23T21:16:12.580Z,27.58
2022-08-23T21:18:41.916Z,27.67
2022-08-23T21:21:10.798Z,27.45
2022-08-23T21:23:40.064Z,27.47
2022-08-23T21:26:09.940Z,27.30
2022-08-23T21:28:38.515Z,27.65
2022-08-23T21:31:10.622Z,27.60
2022-08-23T21:33:41.860Z,27.71
2022-08-23T21:36:10.978Z,27.54
2022-08-23T21:38:39.700Z,27.60
2022-08-23T21:41:11.576Z,27.20
2022-08-23T21:43:40.368Z,27.39
2022-08-23T21:46:08.929Z,27.57
2022-08-23T21:48:37.714Z,27.66
2022-08-23T21:51:09.038Z,27.76
2022-08-23T21:53:38.403Z,27.84
2022-08-23T21:56:07.324Z,27.86
2022-08-23T21:58:35.945Z,27.75
2022-08-23T22:01:04.657Z,27.74
2022-08-23T22:03:36.219Z,27.56
2022-08-23T22:06:05.816Z,27.69
2022-08-23T22:08:35.789Z,27.75
2022-08-23T22:11:07.371Z,27.78
2022-08-23T22:13:37.185Z,27.39
2022-08-23T22:16:06.963Z,27.57
2022-08-23T22:18:36.155Z,27.57
2022-08-23T22:21:05.852Z,27.41
2022-08-23T22:23:37.486Z,27.36
2022-08-23T22:26:08.357Z,27.28
2022-08-23T22:28:37.686Z,27.04
2022-08-23T22:31:08.560Z,27.24
2022-08-23T22:33:37.107Z,26.74
2022-08-23T22:36:08.555Z,26.97
2022-08-23T22:38:38.556Z,27.19
2022-08-23T22:41:08.180Z,26.81
2022-08-23T22:43:37.666Z,27.01
2022-08-23T22:46:06.564Z,26.67
2022-08-23T22:48:35.959Z,26.67
2022-08-23T22:51:09.582Z,26.20
2022-08-23T22:53:41.646Z,26.49
2022-08-23T22:56:12.963Z,26.49
2022-08-23T22:58:42.297Z,26.67
2022-08-23T23:01:18.446Z,26.77
2022-08-23T23:03:47.367Z,26.51
2022-08-23T23:06:18.153Z,26.78
2022-08-23T23:08:48.718Z,26.86
2022-08-23T23:11:19.686Z,26.42
2022-08-23T23:13:48.311Z,26.71
2022-08-23T23:16:20.656Z,26.71
2022-08-23T23:19:03.519Z,26.70
2022-08-23T23:21:34.134Z,26.77
2022-08-23T23:24:04.631Z,26.74
2022-08-23T23:26:33.513Z,26.50
2022-08-23T23:29:02.140Z,26.72
2022-08-23T23:31:30.807Z,26.67
2022-08-23T23:33:59.144Z,26.84
2022-08-23T23:36:28.052Z,26.88
2022-08-23T23:38:57.073Z,27.09
2022-08-23T23:41:27.474Z,27.22
2022-08-23T23:43:55.969Z,27.25
2022-08-23T23:46:26.222Z,26.42
2022-08-23T23:48:54.804Z,26.82
2022-08-23T23:51:25.783Z,27.07
2022-08-23T23:53:56.136Z,27.09
2022-08-23T23:56:27.551Z,27.10
2022-08-23T23:58:58.630Z,26.91
